sensor_id;sensor_type;location;lat;lon;timestamp;pressure;altitude;pressure_sealevel;temperature;humidity
141;BME280;65;48.778;9.160;2023-03-09T00:01:23;96107.13;;;9.82;100.00
141;BME280;65;48.778;9.160;2023-03-09T00:04:13;96110.34;;;9.86;100.00
141;BME280;65;48.778;9.160;2023-03-09T00:06:59;96106.56;;;9.98;100.00
141;BME280;65;48.778;9.160;2023-03-09T00:09:45;96107.78;;;10.04;100.00
141;BME280;65;48.778;9.160;2023-03-09T00:12:31;96111.09;;;10.06;100.00
141;BME280;65;48.778;9.160;2023-03-09T00:15:17;96138.47;;;10.05;100.00
141;BME280;65;48.778;9.160;2023-03-09T00:18:02;96148.78;;;9.98;100.00
141;BME280;65;48.778;9.160;2023-03-09T00:20:48;96127.00;;;9.87;100.00
141;BME280;65;48.778;9.160;2023-03-09T00:23:34;96166.69;;;9.95;100.00
141;BME280;65;48.778;9.160;2023-03-09T00:26:21;96180.19;;;9.92;100.00
141;BME280;65;48.778;9.160;2023-03-09T00:29:09;96195.84;;;10.03;100.00
141;BME280;65;48.778;9.160;2023-03-09T00:31:56;96192.66;;;9.99;100.00
141;BME280;65;48.778;9.160;2023-03-09T00:34:42;96180.31;;;10.00;100.00
141;BME280;65;48.778;9.160;2023-03-09T00:37:28;96197.78;;;10.01;100.00
141;BME280;65;48.778;9.160;2023-03-09T00:40:14;96207.53;;;9.91;100.00
141;BME280;65;48.778;9.160;2023-03-09T00:43:00;96218.25;;;9.89;100.00
141;BME280;65;48.778;9.160;2023-03-09T00:45:46;96230.47;;;9.90;100.00
141;BME280;65;48.778;9.160;2023-03-09T00:48:31;96228.50;;;9.82;100.00
141;BME280;65;48.778;9.160;2023-03-09T00:51:17;96232.38;;;9.78;100.00
141;BME280;65;48.778;9.160;2023-03-09T00:54:03;96226.84;;;9.72;100.00
141;BME280;65;48.778;9.160;2023-03-09T00:56:49;96217.81;;;9.74;100.00
141;BME280;65;48.778;9.160;2023-03-09T00:59:34;96218.09;;;9.71;100.00
141;BME280;65;48.778;9.160;2023-03-09T01:02:21;96230.19;;;9.64;100.00
141;BME280;65;48.778;9.160;2023-03-09T01:05:08;96232.53;;;9.58;100.00
141;BME280;65;48.778;9.160;2023-03-09T01:07:55;96251.69;;;9.50;100.00
141;BME280;65;48.778;9.160;2023-03-09T01:10:41;96250.16;;;9.38;100.00
141;BME280;65;48.778;9.160;2023-03-09T01:13:27;96245.16;;;9.35;100.00
141;BME280;65;48.778;9.160;2023-03-09T01:16:13;96243.91;;;9.29;100.00
141;BME280;65;48.778;9.160;2023-03-09T01:18:59;96245.16;;;9.25;100.00
141;BME280;65;48.778;9.160;2023-03-09T01:21:44;96228.31;;;9.07;100.00
141;BME280;65;48.778;9.160;2023-03-09T01:24:30;96220.94;;;8.91;100.00
141;BME280;65;48.778;9.160;2023-03-09T01:27:16;96226.59;;;8.86;100.00
141;BME280;65;48.778;9.160;2023-03-09T01:30:09;96227.72;;;8.84;100.00
141;BME280;65;48.778;9.160;2023-03-09T01:32:55;96229.38;;;8.85;100.00
141;BME280;65;48.778;9.160;2023-03-09T01:35:41;96241.16;;;8.81;100.00
141;BME280;65;48.778;9.160;2023-03-09T01:38:27;96245.72;;;8.79;100.00
141;BME280;65;48.778;9.160;2023-03-09T01:41:13;96265.28;;;8.86;100.00
141;BME280;65;48.778;9.160;2023-03-09T01:44:00;96256.44;;;8.97;100.00
141;BME280;65;48.778;9.160;2023-03-09T01:46:50;96249.50;;;8.96;100.00
141;BME280;65;48.778;9.160;2023-03-09T01:49:43;96241.19;;;9.00;100.00
141;BME280;65;48.778;9.160;2023-03-09T01:52:32;96237.31;;;9.04;100.00
141;BME280;65;48.778;9.160;2023-03-09T01:55:22;96253.66;;;8.98;100.00
141;BME280;65;48.778;9.160;2023-03-09T01:58:23;96254.22;;;8.92;100.00
141;BME280;65;48.778;9.160;2023-03-09T02:01:10;96260.19;;;8.94;100.00
141;BME280;65;48.778;9.160;2023-03-09T02:04:01;96275.16;;;8.94;100.00
141;BME280;65;48.778;9.160;2023-03-09T02:06:48;96234.50;;;8.86;100.00
141;BME280;65;48.778;9.160;2023-03-09T02:09:42;96245.34;;;8.93;100.00
141;BME280;65;48.778;9.160;2023-03-09T02:12:28;96239.25;;;9.02;100.00
141;BME280;65;48.778;9.160;2023-03-09T02:15:14;96207.78;;;9.01;100.00
141;BME280;65;48.778;9.160;2023-03-09T02:18:00;96231.34;;;9.02;100.00
141;BME280;65;48.778;9.160;2023-03-09T02:21:17;96228.16;;;8.99;100.00
141;BME280;65;48.778;9.160;2023-03-09T02:30:22;96234.00;;;8.62;100.00
141;BME280;65;48.778;9.160;2023-03-09T02:33:12;96233.66;;;8.76;100.00
141;BME280;65;48.778;9.160;2023-03-09T02:36:05;96233.59;;;8.67;100.00
141;BME280;65;48.778;9.160;2023-03-09T02:38:52;96232.72;;;8.56;100.00
141;BME280;65;48.778;9.160;2023-03-09T02:41:37;96217.16;;;8.44;100.00
141;BME280;65;48.778;9.160;2023-03-09T02:44:24;96220.75;;;8.43;100.00
141;BME280;65;48.778;9.160;2023-03-09T02:47:17;96211.19;;;8.72;100.00
141;BME280;65;48.778;9.160;2023-03-09T02:50:04;96237.28;;;8.85;100.00
141;BME280;65;48.778;9.160;2023-03-09T02:52:49;96241.06;;;9.02;100.00
141;BME280;65;48.778;9.160;2023-03-09T02:55:35;96254.09;;;9.03;100.00
141;BME280;65;48.778;9.160;2023-03-09T02:58:21;96265.06;;;9.08;100.00
141;BME280;65;48.778;9.160;2023-03-09T03:01:06;96279.53;;;9.24;100.00
141;BME280;65;48.778;9.160;2023-03-09T03:03:52;96290.38;;;9.30;100.00
141;BME280;65;48.778;9.160;2023-03-09T03:06:38;96283.72;;;9.26;100.00
141;BME280;65;48.778;9.160;2023-03-09T03:09:25;96303.78;;;9.17;100.00
141;BME280;65;48.778;9.160;2023-03-09T03:12:11;96330.94;;;9.08;100.00
141;BME280;65;48.778;9.160;2023-03-09T03:15:16;96338.31;;;9.14;100.00
141;BME280;65;48.778;9.160;2023-03-09T03:18:02;96358.88;;;9.20;100.00
141;BME280;65;48.778;9.160;2023-03-09T03:20:47;96375.78;;;9.18;100.00
141;BME280;65;48.778;9.160;2023-03-09T03:23:34;96381.31;;;9.15;100.00
141;BME280;65;48.778;9.160;2023-03-09T03:26:20;96402.78;;;9.10;100.00
141;BME280;65;48.778;9.160;2023-03-09T03:29:05;96418.72;;;9.09;100.00
141;BME280;65;48.778;9.160;2023-03-09T03:31:51;96463.88;;;8.95;100.00
141;BME280;65;48.778;9.160;2023-03-09T03:34:37;96450.81;;;8.93;100.00
141;BME280;65;48.778;9.160;2023-03-09T03:37:23;96450.97;;;8.92;100.00
141;BME280;65;48.778;9.160;2023-03-09T03:40:10;96462.41;;;8.81;100.00
141;BME280;65;48.778;9.160;2023-03-09T03:42:56;96453.34;;;8.74;100.00
141;BME280;65;48.778;9.160;2023-03-09T03:45:41;96450.13;;;8.70;100.00
141;BME280;65;48.778;9.160;2023-03-09T03:48:27;96457.22;;;8.59;100.00
141;BME280;65;48.778;9.160;2023-03-09T03:51:13;96447.59;;;8.48;100.00
141;BME280;65;48.778;9.160;2023-03-09T03:53:59;96460.28;;;8.43;100.00
141;BME280;65;48.778;9.160;2023-03-09T03:57:03;96476.69;;;8.46;100.00
141;BME280;65;48.778;9.160;2023-03-09T03:59:49;96481.94;;;8.46;100.00
141;BME280;65;48.778;9.160;2023-03-09T04:02:35;96478.75;;;8.64;100.00
141;BME280;65;48.778;9.160;2023-03-09T04:05:21;96481.44;;;8.52;100.00
141;BME280;65;48.778;9.160;2023-03-09T04:08:06;96486.44;;;8.55;100.00
141;BME280;65;48.778;9.160;2023-03-09T04:10:52;96486.00;;;8.50;100.00
141;BME280;65;48.778;9.160;2023-03-09T04:13:38;96501.28;;;8.56;100.00
141;BME280;65;48.778;9.160;2023-03-09T04:16:24;96498.19;;;8.51;100.00
141;BME280;65;48.778;9.160;2023-03-09T04:19:09;96503.59;;;8.50;100.00
141;BME280;65;48.778;9.160;2023-03-09T04:21:55;96517.00;;;8.47;100.00
141;BME280;65;48.778;9.160;2023-03-09T04:24:41;96528.53;;;8.67;100.00
141;BME280;65;48.778;9.160;2023-03-09T04:27:26;96544.56;;;8.75;100.00
141;BME280;65;48.778;9.160;2023-03-09T04:30:12;96543.59;;;8.76;100.00
141;BME280;65;48.778;9.160;2023-03-09T04:32:58;96555.72;;;8.67;100.00
141;BME280;65;48.778;9.160;2023-03-09T04:35:44;96561.94;;;8.66;100.00
141;BME280;65;48.778;9.160;2023-03-09T04:38:29;96584.31;;;8.72;100.00
141;BME280;65;48.778;9.160;2023-03-09T04:41:15;96605.38;;;8.72;100.00
141;BME280;65;48.778;9.160;2023-03-09T04:44:01;96607.06;;;8.73;100.00
141;BME280;65;48.778;9.160;2023-03-09T04:46:47;96609.00;;;8.71;100.00
141;BME280;65;48.778;9.160;2023-03-09T04:49:33;96615.34;;;8.68;100.00
141;BME280;65;48.778;9.160;2023-03-09T04:52:18;96622.16;;;8.71;100.00
141;BME280;65;48.778;9.160;2023-03-09T04:55:05;96624.25;;;8.88;100.00
141;BME280;65;48.778;9.160;2023-03-09T04:57:51;96636.25;;;8.81;100.00
141;BME280;65;48.778;9.160;2023-03-09T05:00:37;96635.28;;;8.82;100.00
141;BME280;65;48.778;9.160;2023-03-09T05:03:23;96641.16;;;8.85;100.00
141;BME280;65;48.778;9.160;2023-03-09T05:06:08;96645.56;;;8.85;100.00
141;BME280;65;48.778;9.160;2023-03-09T05:08:54;96660.41;;;8.86;100.00
141;BME280;65;48.778;9.160;2023-03-09T05:11:41;96670.59;;;8.91;100.00
141;BME280;65;48.778;9.160;2023-03-09T05:14:28;96673.94;;;8.93;100.00
141;BME280;65;48.778;9.160;2023-03-09T05:17:14;96676.56;;;8.93;100.00
141;BME280;65;48.778;9.160;2023-03-09T05:20:00;96683.03;;;8.88;100.00
141;BME280;65;48.778;9.160;2023-03-09T05:22:45;96675.47;;;8.95;100.00
141;BME280;65;48.778;9.160;2023-03-09T05:25:31;96686.72;;;8.97;99.86
141;BME280;65;48.778;9.160;2023-03-09T05:28:17;96692.97;;;8.96;99.82
141;BME280;65;48.778;9.160;2023-03-09T05:31:11;96691.53;;;8.92;99.98
141;BME280;65;48.778;9.160;2023-03-09T05:33:57;96700.25;;;9.04;99.99
141;BME280;65;48.778;9.160;2023-03-09T05:36:43;96703.09;;;9.12;98.86
141;BME280;65;48.778;9.160;2023-03-09T05:39:28;96711.84;;;9.12;98.29
141;BME280;65;48.778;9.160;2023-03-09T05:42:14;96712.19;;;9.19;97.87
141;BME280;65;48.778;9.160;2023-03-09T05:45:00;96724.28;;;9.22;98.86
141;BME280;65;48.778;9.160;2023-03-09T05:47:47;96731.94;;;9.25;97.86
141;BME280;65;48.778;9.160;2023-03-09T05:50:33;96730.03;;;9.15;97.94
141;BME280;65;48.778;9.160;2023-03-09T05:53:19;96746.13;;;9.01;100.00
141;BME280;65;48.778;9.160;2023-03-09T05:56:06;96746.03;;;8.92;100.00
141;BME280;65;48.778;9.160;2023-03-09T05:58:53;96749.94;;;9.08;98.40
141;BME280;65;48.778;9.160;2023-03-09T06:01:38;96758.06;;;9.16;97.96
141;BME280;65;48.778;9.160;2023-03-09T06:04:25;96765.16;;;9.05;99.71
141;BME280;65;48.778;9.160;2023-03-09T06:07:10;96771.88;;;9.09;98.96
141;BME280;65;48.778;9.160;2023-03-09T06:09:56;96775.34;;;9.09;98.41
141;BME280;65;48.778;9.160;2023-03-09T06:12:42;96774.63;;;9.07;99.34
141;BME280;65;48.778;9.160;2023-03-09T06:15:28;96777.13;;;9.09;97.74
141;BME280;65;48.778;9.160;2023-03-09T06:18:14;96787.81;;;8.96;100.00
141;BME280;65;48.778;9.160;2023-03-09T06:21:01;96785.16;;;9.07;98.98
141;BME280;65;48.778;9.160;2023-03-09T06:23:47;96782.75;;;9.15;98.42
141;BME280;65;48.778;9.160;2023-03-09T06:26:32;96779.63;;;9.22;99.14
141;BME280;65;48.778;9.160;2023-03-09T06:29:18;96781.88;;;9.37;96.74
141;BME280;65;48.778;9.160;2023-03-09T06:32:04;96786.41;;;9.46;96.70
141;BME280;65;48.778;9.160;2023-03-09T06:34:50;96791.31;;;9.51;96.60
141;BME280;65;48.778;9.160;2023-03-09T06:37:35;96799.22;;;9.51;96.84
141;BME280;65;48.778;9.160;2023-03-09T06:40:21;96798.72;;;9.57;97.34
141;BME280;65;48.778;9.160;2023-03-09T06:43:07;96799.91;;;9.64;95.98
141;BME280;65;48.778;9.160;2023-03-09T06:45:53;96799.59;;;9.78;95.22
141;BME280;65;48.778;9.160;2023-03-09T06:48:39;96806.03;;;9.97;93.13
141;BME280;65;48.778;9.160;2023-03-09T06:51:25;96797.78;;;9.79;93.70
141;BME280;65;48.778;9.160;2023-03-09T06:54:13;96811.50;;;9.73;94.48
141;BME280;65;48.778;9.160;2023-03-09T06:56:59;96822.03;;;9.84;94.39
141;BME280;65;48.778;9.160;2023-03-09T06:59:44;96826.22;;;9.87;93.63
141;BME280;65;48.778;9.160;2023-03-09T07:02:30;96825.97;;;9.78;96.12
141;BME280;65;48.778;9.160;2023-03-09T07:05:16;96836.44;;;9.69;95.69
141;BME280;65;48.778;9.160;2023-03-09T07:08:02;96833.56;;;9.72;95.76
141;BME280;65;48.778;9.160;2023-03-09T07:10:48;96847.53;;;9.95;93.67
141;BME280;65;48.778;9.160;2023-03-09T07:13:34;96847.91;;;10.22;92.07
141;BME280;65;48.778;9.160;2023-03-09T07:16:20;96853.28;;;10.53;91.32
141;BME280;65;48.778;9.160;2023-03-09T07:19:07;96859.47;;;10.63;89.93
141;BME280;65;48.778;9.160;2023-03-09T07:21:54;96871.63;;;10.75;90.65
141;BME280;65;48.778;9.160;2023-03-09T07:24:40;96861.91;;;10.75;90.18
141;BME280;65;48.778;9.160;2023-03-09T07:27:26;96867.41;;;10.93;87.74
141;BME280;65;48.778;9.160;2023-03-09T07:30:12;96856.03;;;10.72;88.49
141;BME280;65;48.778;9.160;2023-03-09T07:32:59;96863.22;;;10.60;88.25
141;BME280;65;48.778;9.160;2023-03-09T07:35:45;96872.81;;;10.40;90.13
141;BME280;65;48.778;9.160;2023-03-09T07:38:31;96884.72;;;10.56;89.61
141;BME280;65;48.778;9.160;2023-03-09T07:41:19;96878.53;;;10.87;85.89
141;BME280;65;48.778;9.160;2023-03-09T07:44:05;96892.34;;;11.21;85.13
141;BME280;65;48.778;9.160;2023-03-09T07:46:51;96892.16;;;11.44;84.25
141;BME280;65;48.778;9.160;2023-03-09T07:49:36;96885.16;;;11.73;81.54
141;BME280;65;48.778;9.160;2023-03-09T07:52:22;96892.19;;;12.03;78.72
141;BME280;65;48.778;9.160;2023-03-09T07:55:11;96898.31;;;11.94;77.59
141;BME280;65;48.778;9.160;2023-03-09T07:57:57;96895.38;;;11.97;76.17
141;BME280;65;48.778;9.160;2023-03-09T08:00:43;96896.00;;;12.20;74.46
141;BME280;65;48.778;9.160;2023-03-09T08:03:29;96897.25;;;12.35;74.29
141;BME280;65;48.778;9.160;2023-03-09T08:06:15;96898.34;;;12.61;71.85
141;BME280;65;48.778;9.160;2023-03-09T08:09:01;96902.94;;;12.59;73.40
141;BME280;65;48.778;9.160;2023-03-09T08:11:47;96907.84;;;12.45;71.83
141;BME280;65;48.778;9.160;2023-03-09T08:14:34;96922.47;;;12.20;74.88
141;BME280;65;48.778;9.160;2023-03-09T08:17:20;96932.59;;;12.05;77.37
141;BME280;65;48.778;9.160;2023-03-09T08:20:07;96931.91;;;12.13;75.92
141;BME280;65;48.778;9.160;2023-03-09T08:22:56;96938.22;;;12.21;74.09
141;BME280;65;48.778;9.160;2023-03-09T08:25:42;96941.31;;;12.26;74.60
141;BME280;65;48.778;9.160;2023-03-09T08:28:28;96943.81;;;12.38;71.85
141;BME280;65;48.778;9.160;2023-03-09T08:31:16;96954.00;;;12.42;74.09
141;BME280;65;48.778;9.160;2023-03-09T08:34:04;96963.06;;;12.40;72.74
141;BME280;65;48.778;9.160;2023-03-09T08:36:50;96955.25;;;12.67;72.26
141;BME280;65;48.778;9.160;2023-03-09T08:39:37;96974.91;;;12.64;73.56
141;BME280;65;48.778;9.160;2023-03-09T08:42:23;96976.19;;;12.60;72.67
141;BME280;65;48.778;9.160;2023-03-09T08:45:10;96975.47;;;12.49;71.10
141;BME280;65;48.778;9.160;2023-03-09T08:47:56;96976.59;;;12.46;72.79
141;BME280;65;48.778;9.160;2023-03-09T08:50:41;96991.09;;;12.42;73.53
141;BME280;65;48.778;9.160;2023-03-09T08:53:27;96988.44;;;12.42;73.07
141;BME280;65;48.778;9.160;2023-03-09T08:56:13;97007.56;;;12.55;73.52
141;BME280;65;48.778;9.160;2023-03-09T08:58:59;97007.16;;;12.60;73.31
141;BME280;65;48.778;9.160;2023-03-09T09:01:44;97012.75;;;13.05;72.71
141;BME280;65;48.778;9.160;2023-03-09T09:04:30;97001.28;;;13.24;70.67
141;BME280;65;48.778;9.160;2023-03-09T09:07:17;97023.91;;;12.89;73.17
141;BME280;65;48.778;9.160;2023-03-09T09:10:04;97043.66;;;12.27;80.09
141;BME280;65;48.778;9.160;2023-03-09T09:12:50;97050.22;;;11.72;84.58
141;BME280;65;48.778;9.160;2023-03-09T09:15:35;97065.97;;;11.32;89.66
141;BME280;65;48.778;9.160;2023-03-09T09:18:23;97076.34;;;10.71;95.97
141;BME280;65;48.778;9.160;2023-03-09T09:21:11;97089.75;;;10.25;100.00
141;BME280;65;48.778;9.160;2023-03-09T09:23:58;97068.25;;;10.07;100.00
141;BME280;65;48.778;9.160;2023-03-09T09:26:44;97082.53;;;10.04;100.00
141;BME280;65;48.778;9.160;2023-03-09T09:29:31;97079.78;;;10.28;100.00
141;BME280;65;48.778;9.160;2023-03-09T09:32:17;97079.94;;;10.70;100.00
141;BME280;65;48.778;9.160;2023-03-09T09:35:02;97078.75;;;10.95;100.00
141;BME280;65;48.778;9.160;2023-03-09T09:37:49;97083.06;;;11.07;98.66
141;BME280;65;48.778;9.160;2023-03-09T09:40:38;97093.53;;;11.29;98.50
141;BME280;65;48.778;9.160;2023-03-09T09:43:26;97079.69;;;11.58;96.00
141;BME280;65;48.778;9.160;2023-03-09T09:46:14;97082.25;;;11.90;95.07
141;BME280;65;48.778;9.160;2023-03-09T09:49:01;97084.91;;;12.20;92.33
141;BME280;65;48.778;9.160;2023-03-09T10:01:09;97102.22;;;12.03;86.99
141;BME280;65;48.778;9.160;2023-03-09T10:04:06;97114.09;;;12.40;81.71
141;BME280;65;48.778;9.160;2023-03-09T10:06:57;97116.41;;;12.23;81.31
141;BME280;65;48.778;9.160;2023-03-09T10:10:14;97108.38;;;12.34;81.02
141;BME280;65;48.778;9.160;2023-03-09T10:13:04;97123.03;;;12.39;82.57
141;BME280;65;48.778;9.160;2023-03-09T10:15:58;97108.38;;;12.34;82.11
141;BME280;65;48.778;9.160;2023-03-09T10:18:51;97128.00;;;12.32;81.47
141;BME280;65;48.778;9.160;2023-03-09T10:21:55;97137.75;;;12.22;81.57
141;BME280;65;48.778;9.160;2023-03-09T10:24:49;97131.59;;;12.21;82.60
141;BME280;65;48.778;9.160;2023-03-09T10:27:46;97146.34;;;12.54;82.21
141;BME280;65;48.778;9.160;2023-03-09T10:34:02;97148.00;;;12.86;81.22
141;BME280;65;48.778;9.160;2023-03-09T10:37:02;97135.09;;;13.41;76.61
141;BME280;65;48.778;9.160;2023-03-09T10:39:49;97126.16;;;13.42;74.90
141;BME280;65;48.778;9.160;2023-03-09T10:42:36;97118.63;;;13.37;74.06
141;BME280;65;48.778;9.160;2023-03-09T10:45:30;97135.53;;;13.36;76.94
141;BME280;65;48.778;9.160;2023-03-09T10:48:24;97135.88;;;13.12;75.69
141;BME280;65;48.778;9.160;2023-03-09T10:51:34;97127.75;;;12.94;74.35
141;BME280;65;48.778;9.160;2023-03-09T10:54:25;97125.25;;;13.03;75.55
141;BME280;65;48.778;9.160;2023-03-09T10:57:23;97133.59;;;12.79;76.84
141;BME280;65;48.778;9.160;2023-03-09T11:00:14;97113.25;;;12.79;76.65
141;BME280;65;48.778;9.160;2023-03-09T11:03:00;97121.06;;;12.90;75.48
141;BME280;65;48.778;9.160;2023-03-09T11:05:46;97111.00;;;12.84;71.78
141;BME280;65;48.778;9.160;2023-03-09T11:08:32;97120.78;;;12.93;74.07
141;BME280;65;48.778;9.160;2023-03-09T11:11:20;97106.25;;;12.78;72.83
141;BME280;65;48.778;9.160;2023-03-09T11:14:41;97104.75;;;13.05;69.38
141;BME280;65;48.778;9.160;2023-03-09T11:20:24;97085.66;;;13.40;70.09
141;BME280;65;48.778;9.160;2023-03-09T11:23:31;97096.78;;;13.63;67.58
141;BME280;65;48.778;9.160;2023-03-09T11:32:40;97100.13;;;14.58;65.60
141;BME280;65;48.778;9.160;2023-03-09T11:35:26;97083.44;;;14.29;63.10
141;BME280;65;48.778;9.160;2023-03-09T11:38:13;97097.06;;;14.16;63.04
141;BME280;65;48.778;9.160;2023-03-09T11:41:33;97096.56;;;14.03;61.97
141;BME280;65;48.778;9.160;2023-03-09T11:47:37;97095.88;;;14.01;61.84
141;BME280;65;48.778;9.160;2023-03-09T11:50:29;97103.91;;;14.18;61.47
141;BME280;65;48.778;9.160;2023-03-09T11:56:35;97102.22;;;15.53;55.48
141;BME280;65;48.778;9.160;2023-03-09T12:00:19;97094.16;;;16.06;53.36
141;BME280;65;48.778;9.160;2023-03-09T12:03:08;97133.13;;;17.01;53.12
141;BME280;65;48.778;9.160;2023-03-09T12:06:00;97117.69;;;17.86;49.47
141;BME280;65;48.778;9.160;2023-03-09T12:08:48;97128.75;;;16.24;53.26
141;BME280;65;48.778;9.160;2023-03-09T12:11:40;97118.47;;;15.24;55.06
141;BME280;65;48.778;9.160;2023-03-09T12:14:32;97118.88;;;15.02;58.27
141;BME280;65;48.778;9.160;2023-03-09T12:17:22;97113.69;;;16.15;55.19
141;BME280;65;48.778;9.160;2023-03-09T12:20:38;97120.06;;;16.82;53.94
141;BME280;65;48.778;9.160;2023-03-09T12:26:32;97105.34;;;18.96;46.34
141;BME280;65;48.778;9.160;2023-03-09T12:29:22;97108.28;;;20.68;42.70
141;BME280;65;48.778;9.160;2023-03-09T12:38:23;97108.66;;;20.50;41.50
141;BME280;65;48.778;9.160;2023-03-09T12:41:24;97101.53;;;18.90;44.02
141;BME280;65;48.778;9.160;2023-03-09T12:44:10;97093.53;;;18.35;48.41
141;BME280;65;48.778;9.160;2023-03-09T12:46:59;97109.28;;;18.22;47.22
141;BME280;65;48.778;9.160;2023-03-09T12:49:48;97103.84;;;16.75;48.56
141;BME280;65;48.778;9.160;2023-03-09T12:55:59;97108.31;;;15.81;53.33
141;BME280;65;48.778;9.160;2023-03-09T12:58:50;97103.94;;;15.18;54.52
141;BME280;65;48.778;9.160;2023-03-09T13:01:37;97107.22;;;14.67;56.53
141;BME280;65;48.778;9.160;2023-03-09T13:04:27;97109.28;;;14.36;59.46
141;BME280;65;48.778;9.160;2023-03-09T13:07:17;97099.66;;;14.90;56.75
141;BME280;65;48.778;9.160;2023-03-09T13:10:04;97105.03;;;14.80;56.77
141;BME280;65;48.778;9.160;2023-03-09T13:12:55;97111.75;;;14.57;57.80
141;BME280;65;48.778;9.160;2023-03-09T13:15:41;97103.06;;;14.82;56.14
141;BME280;65;48.778;9.160;2023-03-09T13:18:27;97100.00;;;14.77;55.36
141;BME280;65;48.778;9.160;2023-03-09T13:24:43;97097.34;;;14.13;58.12
141;BME280;65;48.778;9.160;2023-03-09T13:27:33;97092.38;;;14.00;58.88
141;BME280;65;48.778;9.160;2023-03-09T13:30:21;97095.19;;;13.99;59.78
141;BME280;65;48.778;9.160;2023-03-09T13:33:19;97101.69;;;14.14;59.91
141;BME280;65;48.778;9.160;2023-03-09T13:36:15;97098.56;;;14.28;59.20
141;BME280;65;48.778;9.160;2023-03-09T13:39:04;97098.16;;;14.23;59.57
141;BME280;65;48.778;9.160;2023-03-09T13:41:52;97112.66;;;14.01;60.67
141;BME280;65;48.778;9.160;2023-03-09T13:44:45;97096.22;;;13.69;61.52
141;BME280;65;48.778;9.160;2023-03-09T13:47:32;97099.88;;;13.58;62.54
141;BME280;65;48.778;9.160;2023-03-09T13:50:20;97108.25;;;13.53;64.08
141;BME280;65;48.778;9.160;2023-03-09T13:53:27;97119.41;;;13.09;71.24
141;BME280;65;48.778;9.160;2023-03-09T13:56:13;97132.06;;;12.76;73.69
141;BME280;65;48.778;9.160;2023-03-09T13:59:00;97136.91;;;12.21;78.85
141;BME280;65;48.778;9.160;2023-03-09T14:01:46;97144.59;;;12.03;87.90
141;BME280;65;48.778;9.160;2023-03-09T14:04:31;97121.97;;;12.20;86.27
141;BME280;65;48.778;9.160;2023-03-09T14:07:23;97116.88;;;13.07;80.46
141;BME280;65;48.778;9.160;2023-03-09T14:10:20;97105.59;;;14.19;74.83
141;BME280;65;48.778;9.160;2023-03-09T14:13:12;97100.41;;;15.00;69.98
141;BME280;65;48.778;9.160;2023-03-09T14:16:13;97100.56;;;14.16;68.12
141;BME280;65;48.778;9.160;2023-03-09T14:19:01;97097.88;;;13.89;69.06
141;BME280;65;48.778;9.160;2023-03-09T14:21:53;97090.00;;;13.97;69.14
141;BME280;65;48.778;9.160;2023-03-09T14:24:44;97097.72;;;13.90;69.51
141;BME280;65;48.778;9.160;2023-03-09T14:27:33;97086.47;;;14.71;66.10
141;BME280;65;48.778;9.160;2023-03-09T14:30:36;97080.75;;;15.11;62.66
141;BME280;65;48.778;9.160;2023-03-09T14:33:29;97085.88;;;14.95;63.52
141;BME280;65;48.778;9.160;2023-03-09T14:36:19;97077.59;;;14.25;63.27
141;BME280;65;48.778;9.160;2023-03-09T14:39:29;97083.47;;;13.82;65.58
141;BME280;65;48.778;9.160;2023-03-09T14:48:01;97084.72;;;13.78;68.52
141;BME280;65;48.778;9.160;2023-03-09T14:50:46;97078.66;;;14.32;65.84
141;BME280;65;48.778;9.160;2023-03-09T14:53:33;97073.44;;;14.13;66.28
141;BME280;65;48.778;9.160;2023-03-09T14:56:19;97083.31;;;13.93;68.23
141;BME280;65;48.778;9.160;2023-03-09T14:59:12;97078.09;;;14.48;65.47
141;BME280;65;48.778;9.160;2023-03-09T15:02:01;97062.38;;;14.54;64.52
141;BME280;65;48.778;9.160;2023-03-09T15:04:47;97063.13;;;15.10;63.76
141;BME280;65;48.778;9.160;2023-03-09T15:07:33;97055.25;;;15.62;62.02
141;BME280;65;48.778;9.160;2023-03-09T15:10:19;97054.56;;;15.86;59.58
141;BME280;65;48.778;9.160;2023-03-09T15:13:05;97052.53;;;16.13;56.75
141;BME280;65;48.778;9.160;2023-03-09T15:15:51;97043.63;;;16.31;56.30
141;BME280;65;48.778;9.160;2023-03-09T15:18:37;97057.66;;;16.07;56.68
141;BME280;65;48.778;9.160;2023-03-09T15:21:22;97050.06;;;16.54;54.69
141;BME280;65;48.778;9.160;2023-03-09T15:24:13;97054.81;;;16.00;55.45
141;BME280;65;48.778;9.160;2023-03-09T15:26:59;97056.84;;;16.06;55.84
141;BME280;65;48.778;9.160;2023-03-09T15:29:45;97047.59;;;15.49;56.07
141;BME280;65;48.778;9.160;2023-03-09T15:32:30;97044.34;;;15.73;55.73
141;BME280;65;48.778;9.160;2023-03-09T15:35:18;97056.34;;;15.15;57.86
141;BME280;65;48.778;9.160;2023-03-09T15:38:04;97063.84;;;14.30;59.40
141;BME280;65;48.778;9.160;2023-03-09T15:40:50;97056.28;;;13.60;63.20
141;BME280;65;48.778;9.160;2023-03-09T15:43:36;97068.03;;;13.48;63.80
141;BME280;65;48.778;9.160;2023-03-09T15:46:22;97059.69;;;13.34;63.59
141;BME280;65;48.778;9.160;2023-03-09T15:49:08;97064.41;;;13.49;63.48
141;BME280;65;48.778;9.160;2023-03-09T15:51:54;97059.94;;;13.50;65.55
141;BME280;65;48.778;9.160;2023-03-09T15:54:39;97056.13;;;13.62;62.51
141;BME280;65;48.778;9.160;2023-03-09T15:57:25;97043.00;;;13.60;62.03
141;BME280;65;48.778;9.160;2023-03-09T16:00:11;97042.06;;;13.42;63.24
141;BME280;65;48.778;9.160;2023-03-09T16:03:02;97033.13;;;13.43;64.05
141;BME280;65;48.778;9.160;2023-03-09T16:05:48;97026.44;;;13.29;63.88
141;BME280;65;48.778;9.160;2023-03-09T16:08:34;97027.81;;;13.24;63.88
141;BME280;65;48.778;9.160;2023-03-09T16:11:20;97032.03;;;13.17;64.75
141;BME280;65;48.778;9.160;2023-03-09T16:14:07;97030.47;;;13.14;64.70
141;BME280;65;48.778;9.160;2023-03-09T16:16:53;97033.00;;;13.25;64.47
141;BME280;65;48.778;9.160;2023-03-09T16:19:38;97026.44;;;13.20;66.13
141;BME280;65;48.778;9.160;2023-03-09T16:22:24;97021.25;;;13.09;65.76
141;BME280;65;48.778;9.160;2023-03-09T16:25:10;97018.59;;;13.09;65.24
141;BME280;65;48.778;9.160;2023-03-09T16:27:56;97033.41;;;12.92;64.67
141;BME280;65;48.778;9.160;2023-03-09T16:30:42;97025.75;;;12.89;64.75
141;BME280;65;48.778;9.160;2023-03-09T16:33:28;97019.88;;;12.76;64.64
141;BME280;65;48.778;9.160;2023-03-09T16:36:14;97016.34;;;12.65;64.95
141;BME280;65;48.778;9.160;2023-03-09T16:39:00;97018.16;;;12.46;65.90
141;BME280;65;48.778;9.160;2023-03-09T16:41:49;97018.81;;;12.28;66.60
141;BME280;65;48.778;9.160;2023-03-09T16:44:35;97014.34;;;12.19;66.05
141;BME280;65;48.778;9.160;2023-03-09T16:47:23;97009.34;;;12.26;65.33
141;BME280;65;48.778;9.160;2023-03-09T16:50:17;97016.81;;;12.11;67.17
141;BME280;65;48.778;9.160;2023-03-09T16:53:03;97009.91;;;11.89;67.34